Roebourne, Australia
Current Conditions -  °F | °C
As of 9:30 AM on Tuesday 23 Dec 2014 (Local Time) from YPPD Reporting Station
Clear Clear  
Wind Chill: 93°   Ceiling: Unl
Heat Index: 97°   Visibility: 6mi
Dew Point: 68°   Wind: 9mph
Humidity: 44%   Direction: 320°NW
Pressure: 29.8"   Gusts: NA
Location:  20.78°S, 117.15°E
Report Text: YPPD 230130Z 32008KT CAVOK 34/20 Q1009
Loading
Personal Weather Stations






























Interactive Weather Map New forecast layout! Learn more

10-Day Weather Forecast

Advertisements
Track Severe Weather on mobile